KSEG

Penn Valley Airport

Selinsgrove, Pennsylvania, USA
METAR KSEG 100653Z AUTO 35003KT 7SM CLR M08/M09 A3015 RMK AO2 SLP216 I1000 T10781094
Observed Flight Rules
Dec-10 @ 06:53 UTC (44 minutes ago) Visual Flight Rules
Wind Visibility Clouds
350° at 3 knots 7 miles
  • Clear skies
Temperatures Readings
Current -8°C / 18°F
Dewpoint -9°C / 16°F
Humidity 93%
Altimeter 30.15" Hg
Pressure 1021.6 hPa
Elevation 134
METAR KSEG 100653Z AUTO 35003KT 7SM CLR M08/M09 A3015 RMK AO2 SLP216 I1000 T10781094
Observed Flight Rules
Dec-10 @ 06:53 UTC
(44 minutes ago)
VFR
Wind Visibility
350° at 3 knots 7 miles
Clouds
  • Clear skies
Temperature Dewpoint
-8°C / 18°F -9°C / 16°F
Humidity Altimeter Pressure
93% 30.15" Hg 1021.6 hPa